Time;durP1;ratioP1;P1;durP2;ratioP2;P2;SDS_P1;SDS_P2;PMS_P1;PMS_P2;Temp;Humidity;BMP_temperature;BMP_pressure;BME280_temperature;BME280_humidity;BME280_pressure;Samples;Min_cycle;Max_cycle;Signal;HPM_P1;HPM_P2
2022/05/12 00:00:57;;;;;;;3.30;0.82;;;;;;;;;;5064296;28;20180;-66
2022/05/12 00:03:24;;;;;;;7.90;1.08;;;;;;;;;;5060428;28;20208;-69
2022/05/12 00:05:49;;;;;;;5.07;1.23;;;;;;;;;;5057350;28;20199;-66
2022/05/12 00:08:14;;;;;;;5.28;1.08;;;;;;;;;;5062862;28;20184;-66
2022/05/12 00:10:42;;;;;;;4.55;0.73;;;;;;;;;;5065496;28;20320;-65
2022/05/12 00:13:08;;;;;;;3.53;1.00;;;;;;;;;;5064665;28;20578;-66
2022/05/12 00:15:36;;;;;;;5.95;0.80;;;;;;;;;;5068489;28;20617;-67
2022/05/12 00:18:03;;;;;;;5.05;0.88;;;;;;;;;;5059125;28;20588;-66
2022/05/12 00:20:31;;;;;;;4.15;0.80;;;;;;;;;;5068713;28;20181;-65
2022/05/12 00:23:06;;;;;;;5.40;0.88;;;;;;;;;;5055892;28;20283;-66
2022/05/12 00:25:33;;;;;;;3.38;1.13;;;;;;;;;;5056193;28;20234;-67
2022/05/12 00:27:58;;;;;;;6.18;0.88;;;;;;;;;;5060339;28;20203;-67
2022/05/12 00:30:24;;;;;;;4.38;0.77;;;;;;;;;;5059793;28;20822;-67
2022/05/12 00:32:49;;;;;;;4.43;1.10;;;;;;;;;;5064193;28;20185;-66
2022/05/12 00:35:16;;;;;;;6.95;1.05;;;;;;;;;;5065152;28;20639;-66
2022/05/12 00:37:41;;;;;;;5.18;1.00;;;;;;;;;;5065052;28;20176;-66
2022/05/12 00:40:07;;;;;;;9.57;1.02;;;;;;;;;;5061829;28;20636;-66
2022/05/12 00:42:33;;;;;;;5.35;1.00;;;;;;;;;;5063932;28;20232;-67
2022/05/12 00:44:58;;;;;;;6.25;1.00;;;;;;;;;;5065937;28;20640;-68
2022/05/12 00:47:23;;;;;;;4.03;0.70;;;;;;;;;;5061656;28;20242;-66
2022/05/12 00:49:51;;;;;;;5.50;0.90;;;;;;;;;;5052208;28;20176;-67
2022/05/12 00:52:22;;;;;;;5.13;0.73;;;;;;;;;;5056699;28;20180;-66
2022/05/12 00:54:59;;;;;;;5.78;0.75;;;;;;;;;;5052817;28;20185;-67
2022/05/12 00:57:31;;;;;;;5.57;0.80;;;;;;;;;;5049029;28;20196;-68
2022/05/12 00:59:58;;;;;;;3.53;0.60;;;;;;;;;;5062533;28;20586;-66
2022/05/12 01:02:24;;;;;;;7.45;0.98;;;;;;;;;;5062882;28;20209;-67
2022/05/12 01:04:50;;;;;;;4.85;0.85;;;;;;;;;;5062470;28;20204;-68
2022/05/12 01:07:16;;;;;;;5.78;0.70;;;;;;;;;;5064839;28;20169;-67
2022/05/12 01:09:42;;;;;;;3.42;0.80;;;;;;;;;;5060086;28;20273;-66
2022/05/12 01:12:08;;;;;;;8.48;0.80;;;;;;;;;;5057341;28;20282;-67
2022/05/12 01:14:33;;;;;;;5.32;0.90;;;;;;;;;;5054574;28;20181;-66
2022/05/12 01:17:02;;;;;;;6.70;0.75;;;;;;;;;;5066941;28;20263;-66
2022/05/12 01:19:30;;;;;;;6.28;0.80;;;;;;;;;;5063020;28;20261;-69
2022/05/12 01:21:57;;;;;;;4.18;0.68;;;;;;;;;;5066338;28;20200;-66
2022/05/12 01:24:33;;;;;;;3.75;0.80;;;;;;;;;;5065554;28;20212;-67
2022/05/12 01:27:18;;;;;;;6.25;0.70;;;;;;;;;;5060484;28;20184;-66
2022/05/12 01:29:44;;;;;;;5.30;0.68;;;;;;;;;;5057325;28;20188;-67
2022/05/12 01:32:10;;;;;;;6.80;1.27;;;;;;;;;;5061746;28;20235;-66
2022/05/12 01:34:35;;;;;;;8.95;0.85;;;;;;;;;;5049900;28;20181;-66
2022/05/12 01:37:01;;;;;;;6.45;1.08;;;;;;;;;;5065339;28;20189;-66
2022/05/12 01:39:26;;;;;;;6.72;1.00;;;;;;;;;;5059867;28;20185;-67
2022/05/12 01:41:51;;;;;;;4.55;0.82;;;;;;;;;;5065952;28;20199;-67
2022/05/12 01:44:17;;;;;;;6.80;1.05;;;;;;;;;;5058456;28;20275;-67
2022/05/12 01:46:42;;;;;;;3.47;0.70;;;;;;;;;;5064825;28;20230;-67
2022/05/12 01:49:07;;;;;;;4.57;1.00;;;;;;;;;;5064215;28;20178;-67
2022/05/12 01:51:35;;;;;;;4.07;1.00;;;;;;;;;;5058468;28;20180;-66
2022/05/12 01:54:00;;;;;;;6.07;1.30;;;;;;;;;;5062374;28;20200;-67
2022/05/12 01:56:26;;;;;;;6.07;1.02;;;;;;;;;;5060523;28;20177;-66
2022/05/12 01:58:51;;;;;;;5.40;0.93;;;;;;;;;;5066311;28;20185;-66
2022/05/12 02:01:17;;;;;;;5.32;1.00;;;;;;;;;;5054675;28;20223;-66
2022/05/12 02:03:42;;;;;;;5.60;0.88;;;;;;;;;;5061155;28;20295;-67
2022/05/12 02:06:07;;;;;;;7.43;1.02;;;;;;;;;;5060457;28;20645;-67
2022/05/12 02:08:33;;;;;;;7.50;1.73;;;;;;;;;;5066397;28;20177;-66
2022/05/12 02:10:58;;;;;;;2.58;1.05;;;;;;;;;;5064116;28;20192;-67
2022/05/12 02:13:27;;;;;;;14.32;1.25;;;;;;;;;;5059984;28;20174;-67
2022/05/12 02:15:54;;;;;;;7.70;1.05;;;;;;;;;;5066412;28;20183;-66
2022/05/12 02:18:20;;;;;;;3.63;1.10;;;;;;;;;;5065403;28;20181;-67
2022/05/12 02:20:46;;;;;;;9.00;1.27;;;;;;;;;;5068253;28;20177;-66
2022/05/12 02:23:11;;;;;;;7.13;1.15;;;;;;;;;;5060463;28;20440;-67
2022/05/12 02:25:37;;;;;;;7.10;1.30;;;;;;;;;;5064919;28;20276;-67
2022/05/12 02:28:03;;;;;;;4.90;1.20;;;;;;;;;;5069632;28;20549;-67
2022/05/12 02:30:32;;;;;;;7.93;1.00;;;;;;;;;;5063781;28;20295;-67
2022/05/12 02:32:58;;;;;;;8.38;1.23;;;;;;;;;;5066648;28;20306;-66
2022/05/12 02:35:24;;;;;;;9.07;1.38;;;;;;;;;;5059041;28;20391;-67
2022/05/12 02:37:50;;;;;;;8.32;1.83;;;;;;;;;;5056490;28;21022;-67
2022/05/12 02:40:18;;;;;;;5.78;1.60;;;;;;;;;;5058600;28;20279;-67
2022/05/12 02:42:44;;;;;;;4.85;1.23;;;;;;;;;;5061974;28;20201;-67
2022/05/12 02:45:10;;;;;;;15.95;1.77;;;;;;;;;;5065916;28;20193;-66
2022/05/12 02:47:35;;;;;;;6.35;1.20;;;;;;;;;;5064665;28;20655;-67
2022/05/12 02:50:01;;;;;;;5.43;1.10;;;;;;;;;;5057308;28;20211;-67
2022/05/12 02:52:27;;;;;;;8.45;1.50;;;;;;;;;;5066742;28;20182;-67
2022/05/12 02:54:52;;;;;;;5.35;1.05;;;;;;;;;;5084759;28;20596;-66
2022/05/12 02:57:18;;;;;;;6.25;1.30;;;;;;;;;;5063967;28;20193;-66
2022/05/12 02:59:43;;;;;;;5.20;1.20;;;;;;;;;;5054093;28;20173;-66
2022/05/12 03:02:09;;;;;;;5.88;1.40;;;;;;;;;;5060649;28;20173;-66
2022/05/12 03:04:35;;;;;;;4.63;1.15;;;;;;;;;;5065579;28;20719;-66
2022/05/12 03:07:00;;;;;;;8.50;1.85;;;;;;;;;;5066103;28;20261;-66
2022/05/12 03:09:25;;;;;;;5.75;1.52;;;;;;;;;;5062991;28;20282;-66
2022/05/12 03:11:51;;;;;;;5.32;1.02;;;;;;;;;;5058204;28;20204;-66
2022/05/12 03:14:17;;;;;;;4.38;1.20;;;;;;;;;;5064834;28;20187;-66
2022/05/12 03:16:42;;;;;;;4.53;1.55;;;;;;;;;;5064730;28;20189;-66
2022/05/12 03:19:08;;;;;;;9.82;1.40;;;;;;;;;;5060756;28;20533;-66
2022/05/12 03:21:34;;;;;;;8.30;1.85;;;;;;;;;;5068052;28;20275;-66
2022/05/12 03:24:00;;;;;;;4.60;1.50;;;;;;;;;;5061338;28;20292;-66
2022/05/12 03:26:26;;;;;;;7.78;1.58;;;;;;;;;;5066402;28;20191;-66
2022/05/12 03:28:51;;;;;;;6.53;1.40;;;;;;;;;;5066200;28;20181;-66
2022/05/12 03:31:18;;;;;;;8.18;1.60;;;;;;;;;;5082863;28;20228;-66
2022/05/12 03:33:44;;;;;;;11.90;1.73;;;;;;;;;;5066472;28;20632;-66
2022/05/12 03:36:10;;;;;;;6.43;2.03;;;;;;;;;;5068089;28;20206;-65
2022/05/12 03:38:36;;;;;;;8.68;1.92;;;;;;;;;;5058482;28;20190;-67
2022/05/12 03:41:01;;;;;;;11.02;1.80;;;;;;;;;;5067617;28;20185;-66
2022/05/12 03:46:12;;;;;;;8.77;2.00;;;;;;;;;;5059877;28;20423;-66
2022/05/12 03:48:39;;;;;;;8.85;2.28;;;;;;;;;;5060740;28;20268;-66
2022/05/12 03:51:05;;;;;;;8.88;2.00;;;;;;;;;;5059655;28;20260;-66
2022/05/12 03:53:31;;;;;;;6.53;1.70;;;;;;;;;;5055230;28;20268;-66
2022/05/12 03:55:57;;;;;;;11.25;2.70;;;;;;;;;;5051000;28;20590;-65
2022/05/12 03:58:24;;;;;;;7.10;2.17;;;;;;;;;;5067593;28;20211;-66
2022/05/12 04:00:50;;;;;;;9.88;2.65;;;;;;;;;;5059795;28;20196;-65
2022/05/12 04:03:15;;;;;;;7.95;2.20;;;;;;;;;;5062702;28;20679;-65
2022/05/12 04:05:41;;;;;;;9.82;2.40;;;;;;;;;;5062196;28;20230;-65
2022/05/12 04:08:07;;;;;;;8.48;2.10;;;;;;;;;;5061001;28;20547;-68
2022/05/12 04:10:32;;;;;;;10.85;2.50;;;;;;;;;;5063209;28;20236;-66
2022/05/12 04:12:58;;;;;;;6.10;2.70;;;;;;;;;;5060836;28;20228;-66
2022/05/12 04:15:23;;;;;;;8.07;2.42;;;;;;;;;;5055076;28;20188;-66
2022/05/12 04:18:00;;;;;;;12.95;3.00;;;;;;;;;;5055303;28;20193;-66
2022/05/12 04:20:28;;;;;;;10.75;2.58;;;;;;;;;;5054410;28;20177;-66
2022/05/12 04:22:54;;;;;;;9.93;2.70;;;;;;;;;;5064232;28;20305;-66
2022/05/12 04:25:20;;;;;;;7.35;2.72;;;;;;;;;;5061495;28;20247;-66
2022/05/12 04:27:46;;;;;;;10.15;2.50;;;;;;;;;;5067110;28;20192;-66
2022/05/12 04:30:14;;;;;;;8.85;3.00;;;;;;;;;;5055379;28;20184;-66
2022/05/12 04:32:40;;;;;;;9.32;2.83;;;;;;;;;;5065758;28;20211;-67
2022/05/12 04:35:14;;;;;;;10.77;2.40;;;;;;;;;;5064278;28;20213;-67
2022/05/12 04:37:51;;;;;;;11.10;2.63;;;;;;;;;;5067044;28;20280;-66
2022/05/12 04:40:25;;;;;;;9.65;3.10;;;;;;;;;;5063179;28;20195;-66
2022/05/12 04:42:52;;;;;;;12.07;3.05;;;;;;;;;;5066870;28;20214;-66
2022/05/12 04:45:19;;;;;;;11.32;2.97;;;;;;;;;;5062256;28;20188;-66
2022/05/12 04:47:45;;;;;;;7.30;2.90;;;;;;;;;;5065762;28;20592;-66
2022/05/12 04:50:17;;;;;;;11.95;3.15;;;;;;;;;;5059475;28;20181;-66
2022/05/12 04:52:43;;;;;;;10.68;3.22;;;;;;;;;;5064297;28;20229;-66
2022/05/12 04:55:10;;;;;;;14.05;4.22;;;;;;;;;;5065505;28;20258;-66
2022/05/12 04:57:41;;;;;;;13.40;3.42;;;;;;;;;;5064983;28;20230;-65
2022/05/12 05:00:09;;;;;;;13.75;3.30;;;;;;;;;;5058128;28;20535;-66
2022/05/12 05:02:35;;;;;;;14.65;3.72;;;;;;;;;;5060953;28;20722;-66
2022/05/12 05:05:00;;;;;;;13.77;3.70;;;;;;;;;;5062813;28;20184;-66
2022/05/12 05:07:26;;;;;;;11.60;3.78;;;;;;;;;;5065997;28;20177;-66
2022/05/12 05:09:52;;;;;;;16.27;3.97;;;;;;;;;;5063376;28;20228;-66
2022/05/12 05:12:17;;;;;;;13.30;4.63;;;;;;;;;;5065619;28;20192;-66
2022/05/12 05:14:43;;;;;;;14.23;4.20;;;;;;;;;;5065909;28;20219;-66
2022/05/12 05:17:09;;;;;;;16.52;5.22;;;;;;;;;;5062093;28;20799;-66
2022/05/12 05:19:35;;;;;;;16.05;4.70;;;;;;;;;;5066184;28;20185;-66
2022/05/12 05:22:00;;;;;;;13.25;5.05;;;;;;;;;;5066416;28;20177;-66
2022/05/12 05:24:26;;;;;;;11.55;4.78;;;;;;;;;;5063159;28;20598;-66
2022/05/12 05:26:51;;;;;;;14.30;5.05;;;;;;;;;;5064699;28;20215;-66
2022/05/12 05:29:16;;;;;;;17.52;6.63;;;;;;;;;;5065360;28;20177;-66
2022/05/12 05:31:42;;;;;;;12.45;6.18;;;;;;;;;;5065639;28;20213;-66
2022/05/12 05:34:09;;;;;;;14.98;5.90;;;;;;;;;;5072314;28;20234;-66
2022/05/12 05:36:34;;;;;;;17.13;7.10;;;;;;;;;;5066543;28;20280;-67
2022/05/12 05:39:00;;;;;;;16.92;7.03;;;;;;;;;;5063766;28;20259;-68
2022/05/12 05:41:25;;;;;;;16.73;7.28;;;;;;;;;;5068831;28;20245;-67
2022/05/12 05:43:50;;;;;;;16.80;7.13;;;;;;;;;;5069234;28;20207;-66
2022/05/12 05:46:16;;;;;;;16.65;6.93;;;;;;;;;;5069763;28;20705;-66
2022/05/12 05:48:43;;;;;;;21.48;8.15;;;;;;;;;;5065930;28;20655;-66
2022/05/12 05:53:54;;;;;;;15.63;8.55;;;;;;;;;;5064004;28;20666;-66
2022/05/12 05:56:20;;;;;;;16.33;7.60;;;;;;;;;;5060844;28;20207;-67
2022/05/12 05:58:46;;;;;;;17.58;8.93;;;;;;;;;;5068243;28;20212;-67
2022/05/12 06:01:12;;;;;;;19.80;8.27;;;;;;;;;;5063875;28;20181;-66
2022/05/12 06:03:38;;;;;;;14.40;7.90;;;;;;;;;;5067884;28;20223;-66
2022/05/12 06:06:03;;;;;;;21.33;8.85;;;;;;;;;;5069171;28;20188;-66
2022/05/12 06:08:29;;;;;;;18.25;8.32;;;;;;;;;;5068172;28;20524;-67
2022/05/12 06:10:55;;;;;;;18.08;9.02;;;;;;;;;;5067992;28;20400;-65
2022/05/12 06:13:20;;;;;;;16.88;8.05;;;;;;;;;;5065648;28;20185;-66
2022/05/12 06:15:46;;;;;;;16.95;7.40;;;;;;;;;;5066611;28;20245;-67
2022/05/12 06:18:16;;;;;;;16.65;7.60;;;;;;;;;;5066594;28;20213;-66
2022/05/12 06:20:43;;;;;;;13.35;7.57;;;;;;;;;;5067397;28;20192;-66
2022/05/12 06:23:09;;;;;;;14.88;8.00;;;;;;;;;;5066989;28;20545;-66
2022/05/12 06:25:36;;;;;;;19.70;8.75;;;;;;;;;;5065556;28;20177;-66
2022/05/12 06:28:01;;;;;;;15.85;7.28;;;;;;;;;;5062197;28;20526;-66
2022/05/12 06:30:29;;;;;;;19.52;7.85;;;;;;;;;;5061000;28;20196;-65
2022/05/12 06:32:56;;;;;;;17.23;7.70;;;;;;;;;;5064621;28;20181;-65
2022/05/12 06:35:22;;;;;;;12.73;6.75;;;;;;;;;;5064092;28;20187;-66
2022/05/12 06:37:47;;;;;;;13.38;7.03;;;;;;;;;;5064243;28;20633;-67
2022/05/12 06:40:13;;;;;;;11.90;7.55;;;;;;;;;;5064328;28;20182;-66
2022/05/12 06:42:41;;;;;;;13.23;6.55;;;;;;;;;;5068002;28;20625;-66
2022/05/12 06:45:08;;;;;;;15.65;6.82;;;;;;;;;;5065826;28;20182;-66
2022/05/12 06:47:33;;;;;;;15.00;7.03;;;;;;;;;;5063473;28;20231;-67
2022/05/12 06:50:01;;;;;;;13.40;7.43;;;;;;;;;;5068774;28;20177;-66
2022/05/12 06:52:27;;;;;;;14.60;7.07;;;;;;;;;;5068162;28;20656;-66
2022/05/12 06:54:52;;;;;;;12.48;6.25;;;;;;;;;;5081467;28;20413;-66
2022/05/12 06:57:22;;;;;;;13.23;6.65;;;;;;;;;;5065267;28;20196;-67
2022/05/12 06:59:48;;;;;;;9.90;6.13;;;;;;;;;;5067813;28;20180;-66
2022/05/12 07:02:13;;;;;;;17.75;6.15;;;;;;;;;;5067967;28;20195;-65
2022/05/12 07:04:39;;;;;;;11.68;6.78;;;;;;;;;;5067990;28;20265;-66
2022/05/12 07:07:05;;;;;;;12.32;6.00;;;;;;;;;;5062086;28;20177;-66
2022/05/12 07:09:31;;;;;;;11.13;6.00;;;;;;;;;;5065439;28;20228;-66
2022/05/12 07:11:57;;;;;;;8.68;5.60;;;;;;;;;;5066947;28;20211;-66
2022/05/12 07:14:23;;;;;;;9.48;5.47;;;;;;;;;;5069075;28;20260;-65
2022/05/12 07:16:48;;;;;;;10.85;5.25;;;;;;;;;;5068359;28;20211;-66
2022/05/12 07:19:15;;;;;;;11.85;5.30;;;;;;;;;;5069531;28;20176;-66
2022/05/12 07:27:12;;;;;;;10.30;4.32;;;;;;;;;;5069435;28;20227;-67
2022/05/12 07:29:38;;;;;;;8.35;3.97;;;;;;;;;;5066811;28;20177;-65
2022/05/12 07:32:04;;;;;;;9.27;3.72;;;;;;;;;;5066983;28;20237;-66
2022/05/12 07:34:29;;;;;;;8.27;4.32;;;;;;;;;;5068422;28;20169;-68
2022/05/12 07:36:55;;;;;;;13.02;5.03;;;;;;;;;;5065105;28;20179;-66
2022/05/12 07:39:25;;;;;;;10.45;3.83;;;;;;;;;;5068181;28;20184;-65
2022/05/12 07:41:52;;;;;;;9.25;4.10;;;;;;;;;;5065174;28;20204;-66
2022/05/12 07:44:19;;;;;;;9.35;3.95;;;;;;;;;;5067959;28;20193;-66
2022/05/12 07:46:45;;;;;;;10.05;3.70;;;;;;;;;;5064741;28;20218;-66
2022/05/12 07:49:11;;;;;;;10.75;4.25;;;;;;;;;;5067989;28;20179;-66
2022/05/12 07:51:37;;;;;;;8.90;3.60;;;;;;;;;;5068026;28;20176;-66
2022/05/12 07:54:02;;;;;;;10.45;3.63;;;;;;;;;;5069030;28;20617;-70
2022/05/12 07:56:29;;;;;;;7.18;3.55;;;;;;;;;;5054573;28;20177;-65
2022/05/12 07:58:56;;;;;;;8.00;3.63;;;;;;;;;;5060478;28;20191;-65
2022/05/12 08:01:22;;;;;;;6.18;3.00;;;;;;;;;;5067067;28;20636;-68
2022/05/12 08:03:49;;;;;;;8.20;3.45;;;;;;;;;;5069012;28;20250;-66
2022/05/12 08:06:15;;;;;;;9.63;3.40;;;;;;;;;;5068671;28;20177;-69
2022/05/12 08:08:45;;;;;;;9.02;3.22;;;;;;;;;;5068594;28;20177;-66
2022/05/12 08:11:11;;;;;;;8.30;3.25;;;;;;;;;;5068643;28;20199;-66
2022/05/12 08:13:37;;;;;;;6.03;2.50;;;;;;;;;;5068706;28;20181;-67
2022/05/12 08:16:04;;;;;;;6.57;2.53;;;;;;;;;;5068071;28;20181;-66
2022/05/12 08:18:31;;;;;;;8.38;2.78;;;;;;;;;;5067755;28;20271;-66
2022/05/12 08:20:57;;;;;;;5.68;2.88;;;;;;;;;;5061441;28;20177;-67
2022/05/12 08:23:23;;;;;;;5.82;2.55;;;;;;;;;;5063644;28;20211;-65
2022/05/12 08:25:48;;;;;;;5.07;2.50;;;;;;;;;;5063496;28;20314;-66
2022/05/12 08:28:19;;;;;;;4.80;2.20;;;;;;;;;;5062746;28;20565;-66
2022/05/12 08:30:46;;;;;;;5.10;2.17;;;;;;;;;;5062166;28;20220;-66
2022/05/12 08:33:12;;;;;;;6.00;2.65;;;;;;;;;;5062541;28;20640;-66
2022/05/12 08:35:38;;;;;;;5.35;2.60;;;;;;;;;;5083836;28;20201;-66
2022/05/12 08:38:05;;;;;;;6.63;1.92;;;;;;;;;;5062900;28;20187;-66
2022/05/12 08:40:30;;;;;;;6.43;2.17;;;;;;;;;;5066314;28;20261;-66
2022/05/12 08:43:05;;;;;;;7.38;2.03;;;;;;;;;;5068005;28;20295;-68
2022/05/12 08:45:30;;;;;;;11.18;2.33;;;;;;;;;;5067546;28;20200;-65
2022/05/12 08:47:57;;;;;;;5.97;2.15;;;;;;;;;;5068271;28;20522;-69
2022/05/12 08:50:29;;;;;;;7.50;2.13;;;;;;;;;;5068004;28;20533;-67
2022/05/12 08:53:01;;;;;;;4.13;2.00;;;;;;;;;;5067998;28;20218;-65
2022/05/12 08:55:40;;;;;;;5.32;1.90;;;;;;;;;;5068284;28;20239;-65
2022/05/12 08:58:16;;;;;;;9.75;2.20;;;;;;;;;;5064939;28;20212;-65
2022/05/12 09:00:57;;;;;;;6.10;1.85;;;;;;;;;;5068193;28;20325;-65
2022/05/12 09:03:36;;;;;;;6.03;2.03;;;;;;;;;;5057416;28;20318;-67
2022/05/12 09:06:09;;;;;;;6.50;1.67;;;;;;;;;;5078918;28;20255;-66
2022/05/12 09:08:48;;;;;;;5.13;1.65;;;;;;;;;;5058377;28;20187;-66
2022/05/12 09:11:58;;;;;;;4.18;1.75;;;;;;;;;;5067093;28;20191;-65
2022/05/12 09:14:52;;;;;;;4.75;1.60;;;;;;;;;;5067674;28;20472;-67
2022/05/12 09:17:27;;;;;;;3.58;1.38;;;;;;;;;;5065450;28;20271;-66
2022/05/12 09:19:53;;;;;;;5.05;1.50;;;;;;;;;;5067070;28;20180;-66
2022/05/12 09:22:27;;;;;;;2.60;1.20;;;;;;;;;;5067956;28;20199;-65
2022/05/12 09:24:52;;;;;;;6.55;1.55;;;;;;;;;;5064455;28;20213;-66
2022/05/12 09:27:27;;;;;;;8.45;1.73;;;;;;;;;;5068237;28;20738;-68
2022/05/12 09:29:52;;;;;;;6.82;1.75;;;;;;;;;;5067397;28;20179;-65
2022/05/12 09:32:23;;;;;;;6.03;1.50;;;;;;;;;;5065109;28;20563;-69
2022/05/12 09:35:04;;;;;;;6.30;1.85;;;;;;;;;;5067838;28;20594;-65
2022/05/12 09:37:31;;;;;;;6.38;1.75;;;;;;;;;;5058565;28;20617;-65
2022/05/12 09:40:12;;;;;;;3.83;1.75;;;;;;;;;;5068221;28;20260;-65
2022/05/12 09:42:42;;;;;;;8.20;1.45;;;;;;;;;;5058316;28;20180;-67
2022/05/12 09:45:21;;;;;;;6.10;1.52;;;;;;;;;;5068865;28;20184;-65
2022/05/12 09:47:47;;;;;;;6.90;1.42;;;;;;;;;;5059191;28;20195;-65
2022/05/12 09:50:23;;;;;;;3.42;1.88;;;;;;;;;;5068109;28;20617;-66
2022/05/12 09:52:57;;;;;;;5.00;1.40;;;;;;;;;;5055117;28;20690;-67
2022/05/12 09:55:36;;;;;;;5.25;1.67;;;;;;;;;;5069324;28;20242;-65
2022/05/12 09:58:14;;;;;;;4.80;1.25;;;;;;;;;;5069784;28;20185;-65
2022/05/12 10:00:42;;;;;;;8.38;1.60;;;;;;;;;;5065931;28;20220;-67
2022/05/12 10:09:13;;;;;;;3.38;1.30;;;;;;;;;;5065941;28;20236;-65
2022/05/12 10:11:45;;;;;;;4.18;1.20;;;;;;;;;;5063788;28;20187;-66
2022/05/12 10:14:36;;;;;;;3.95;1.23;;;;;;;;;;5066916;28;20192;-67
2022/05/12 10:17:08;;;;;;;4.30;1.40;;;;;;;;;;5064533;28;20189;-66
2022/05/12 10:19:36;;;;;;;3.05;1.45;;;;;;;;;;5082343;28;20183;-66
2022/05/12 10:22:09;;;;;;;4.13;1.30;;;;;;;;;;5066152;28;20185;-65
2022/05/12 10:24:57;;;;;;;3.70;1.13;;;;;;;;;;5067718;28;20189;-65
2022/05/12 10:27:47;;;;;;;7.82;1.40;;;;;;;;;;5064410;28;20188;-65
2022/05/12 10:30:32;;;;;;;3.83;1.63;;;;;;;;;;5064683;28;20581;-65
2022/05/12 10:33:17;;;;;;;1.88;0.95;;;;;;;;;;5066739;28;20260;-68
2022/05/12 10:35:49;;;;;;;3.35;1.20;;;;;;;;;;5067599;28;20176;-66
2022/05/12 10:38:28;;;;;;;5.35;1.40;;;;;;;;;;5083835;28;20524;-67
2022/05/12 10:41:02;;;;;;;3.13;1.30;;;;;;;;;;5065395;28;20275;-67
2022/05/12 10:43:56;;;;;;;5.00;1.08;;;;;;;;;;5068546;28;20197;-66
2022/05/12 10:46:25;;;;;;;2.10;1.02;;;;;;;;;;5066547;28;20231;-68
2022/05/12 10:49:10;;;;;;;3.80;1.10;;;;;;;;;;5064281;28;20181;-66
2022/05/12 10:51:59;;;;;;;2.08;1.20;;;;;;;;;;5068289;28;20185;-67
2022/05/12 10:54:34;;;;;;;4.78;1.20;;;;;;;;;;5063386;28;20752;-68
2022/05/12 10:57:27;;;;;;;7.28;1.40;;;;;;;;;;5065028;28;20177;-67
2022/05/12 11:00:15;;;;;;;2.92;1.02;;;;;;;;;;5067381;28;20627;-68
2022/05/12 11:02:44;;;;;;;2.33;1.20;;;;;;;;;;5060313;28;20257;-69
2022/05/12 11:05:25;;;;;;;2.90;1.40;;;;;;;;;;5065772;28;20176;-67
2022/05/12 11:07:59;;;;;;;3.05;1.00;;;;;;;;;;5067883;28;20655;-67
2022/05/12 11:10:46;;;;;;;1.98;1.10;;;;;;;;;;5067329;28;20778;-66
2022/05/12 11:13:22;;;;;;;5.80;1.30;;;;;;;;;;5065101;28;20187;-66
2022/05/12 11:16:11;;;;;;;3.22;1.42;;;;;;;;;;5065511;28;20541;-66
2022/05/12 11:18:56;;;;;;;2.25;0.95;;;;;;;;;;5066632;28;20195;-66
2022/05/12 11:21:25;;;;;;;6.10;1.35;;;;;;;;;;5067086;28;20528;-67
2022/05/12 11:23:59;;;;;;;4.47;1.17;;;;;;;;;;5068183;28;20205;-67
2022/05/12 11:27:02;;;;;;;3.63;1.05;;;;;;;;;;5068925;28;20187;-66
2022/05/12 11:30:27;;;;;;;4.85;1.27;;;;;;;;;;5067546;28;20647;-67
2022/05/12 11:33:13;;;;;;;3.53;1.25;;;;;;;;;;5005253;28;20187;-66
2022/05/12 11:35:45;;;;;;;4.78;1.45;;;;;;;;;;5063016;28;20623;-68
2022/05/12 11:38:40;;;;;;;2.47;1.15;;;;;;;;;;5067632;28;20620;-68
2022/05/12 11:41:08;;;;;;;3.20;1.40;;;;;;;;;;5067689;28;20191;-66
2022/05/12 11:46:30;;;;;;;3.92;1.40;;;;;;;;;;5070541;28;20207;-66
2022/05/12 11:49:04;;;;;;;2.83;1.50;;;;;;;;;;5063955;28;20689;-66
2022/05/12 11:51:48;;;;;;;1.65;1.10;;;;;;;;;;5067595;28;20264;-68
2022/05/12 11:54:32;;;;;;;3.17;1.38;;;;;;;;;;5067310;28;20564;-66
2022/05/12 11:56:59;;;;;;;2.55;1.20;;;;;;;;;;5061823;28;20185;-65
2022/05/12 11:59:31;;;;;;;2.00;0.80;;;;;;;;;;5068860;28;20463;-69
2022/05/12 12:02:26;;;;;;;4.75;1.30;;;;;;;;;;5065038;28;20209;-65
2022/05/12 12:04:53;;;;;;;2.28;0.88;;;;;;;;;;5065538;28;20625;-65
2022/05/12 12:07:30;;;;;;;4.75;1.23;;;;;;;;;;5060133;28;20284;-65
2022/05/12 12:09:58;;;;;;;3.72;1.10;;;;;;;;;;5063444;28;20568;-68
2022/05/12 12:12:45;;;;;;;3.85;1.10;;;;;;;;;;5063391;28;20290;-65
2022/05/12 12:15:37;;;;;;;4.63;1.17;;;;;;;;;;5066910;28;20199;-68
2022/05/12 12:18:18;;;;;;;6.22;1.17;;;;;;;;;;5064082;28;20655;-66
2022/05/12 12:20:46;;;;;;;2.78;0.75;;;;;;;;;;5064084;28;20237;-67
2022/05/12 12:23:24;;;;;;;4.45;1.15;;;;;;;;;;5063888;28;20224;-66
2022/05/12 12:26:01;;;;;;;2.92;1.02;;;;;;;;;;5066114;28;20176;-67
2022/05/12 12:28:54;;;;;;;2.42;1.20;;;;;;;;;;5063838;28;20524;-65
2022/05/12 12:32:17;;;;;;;3.90;1.05;;;;;;;;;;5064988;28;20204;-66
2022/05/12 12:34:51;;;;;;;3.00;1.05;;;;;;;;;;5022704;28;20669;-65
2022/05/12 12:37:50;;;;;;;2.72;1.00;;;;;;;;;;5023422;28;20264;-65
2022/05/12 12:40:30;;;;;;;1.35;0.90;;;;;;;;;;5061620;28;20184;-67
2022/05/12 12:42:56;;;;;;;2.67;0.95;;;;;;;;;;5063959;28;20217;-66
2022/05/12 12:45:22;;;;;;;2.00;1.00;;;;;;;;;;4366233;28;10000825;-66
2022/05/12 12:48:01;;;;;;;3.03;1.05;;;;;;;;;;5062051;28;20189;-68
2022/05/12 12:50:40;;;;;;;3.03;1.00;;;;;;;;;;5056844;28;20179;-67
2022/05/12 12:53:07;;;;;;;3.33;1.10;;;;;;;;;;5060254;28;20542;-65
2022/05/12 12:58:39;;;;;;;4.35;1.10;;;;;;;;;;5056997;28;20191;-66
2022/05/12 13:01:17;;;;;;;4.10;0.85;;;;;;;;;;5064404;28;20242;-67
2022/05/12 13:03:52;;;;;;;2.17;1.02;;;;;;;;;;5057293;28;20227;-66
2022/05/12 13:06:36;;;;;;;3.03;1.00;;;;;;;;;;5063871;28;20547;-66
2022/05/12 13:09:12;;;;;;;3.30;1.05;;;;;;;;;;5062936;28;20239;-66
2022/05/12 13:11:41;;;;;;;3.22;1.00;;;;;;;;;;5059449;28;20190;-68
2022/05/12 13:14:09;;;;;;;3.67;1.17;;;;;;;;;;5057804;28;20176;-66
2022/05/12 13:16:39;;;;;;;2.33;1.15;;;;;;;;;;5060151;28;20545;-65
2022/05/12 13:19:07;;;;;;;4.07;1.02;;;;;;;;;;5059871;28;20208;-66
2022/05/12 13:21:42;;;;;;;2.45;1.05;;;;;;;;;;5063811;28;20176;-66
2022/05/12 13:24:22;;;;;;;3.25;1.23;;;;;;;;;;5068445;28;20235;-66
2022/05/12 13:26:49;;;;;;;2.70;1.00;;;;;;;;;;5066218;28;21063;-67
2022/05/12 13:29:27;;;;;;;3.88;1.35;;;;;;;;;;5061548;28;20188;-67
2022/05/12 13:32:03;;;;;;;2.92;1.33;;;;;;;;;;5060600;28;20204;-67
2022/05/12 13:34:30;;;;;;;5.40;1.70;;;;;;;;;;5062993;28;20168;-66
2022/05/12 13:37:11;;;;;;;2.08;1.10;;;;;;;;;;5063824;28;20675;-66
2022/05/12 13:39:49;;;;;;;1.60;1.10;;;;;;;;;;5059904;28;20229;-66
2022/05/12 13:42:36;;;;;;;2.15;1.10;;;;;;;;;;5059957;28;20245;-66
2022/05/12 13:45:07;;;;;;;7.32;1.52;;;;;;;;;;5060580;28;20700;-66
2022/05/12 13:47:43;;;;;;;3.42;1.40;;;;;;;;;;5061747;28;20204;-66
2022/05/12 13:50:10;;;;;;;2.40;1.23;;;;;;;;;;5062049;28;20271;-70
2022/05/12 13:52:45;;;;;;;5.13;1.05;;;;;;;;;;5060788;28;20227;-66
2022/05/12 13:55:28;;;;;;;3.30;1.17;;;;;;;;;;5062571;28;20576;-66
2022/05/12 13:57:54;;;;;;;2.75;1.13;;;;;;;;;;5059675;28;20216;-66
2022/05/12 14:00:42;;;;;;;2.92;1.25;;;;;;;;;;5068067;28;20639;-66
2022/05/12 14:03:27;;;;;;;4.07;1.30;;;;;;;;;;5080027;28;20204;-66
2022/05/12 14:06:09;;;;;;;3.40;1.15;;;;;;;;;;5067091;28;20581;-66
2022/05/12 14:08:34;;;;;;;2.55;1.15;;;;;;;;;;5067410;28;20203;-66
2022/05/12 14:11:00;;;;;;;6.63;1.40;;;;;;;;;;5066981;28;20204;-66
2022/05/12 14:19:25;;;;;;;3.40;1.08;;;;;;;;;;5056103;28;20705;-67
2022/05/12 14:21:56;;;;;;;4.03;1.20;;;;;;;;;;5065678;28;20486;-68
2022/05/12 14:24:25;;;;;;;5.25;1.15;;;;;;;;;;5061621;28;20215;-68
2022/05/12 14:26:50;;;;;;;4.38;1.35;;;;;;;;;;5066075;28;20180;-66
2022/05/12 14:29:17;;;;;;;3.97;1.20;;;;;;;;;;5067187;28;20701;-69
2022/05/12 14:31:44;;;;;;;2.80;0.90;;;;;;;;;;5066410;28;20215;-66
2022/05/12 14:34:10;;;;;;;6.78;1.30;;;;;;;;;;5066380;28;20181;-66
2022/05/12 14:36:36;;;;;;;5.90;1.20;;;;;;;;;;5065865;28;20278;-66
2022/05/12 14:39:04;;;;;;;4.50;1.23;;;;;;;;;;5064898;28;20180;-66
2022/05/12 14:41:30;;;;;;;4.65;1.33;;;;;;;;;;5067286;28;20180;-66
2022/05/12 14:43:55;;;;;;;2.50;1.30;;;;;;;;;;5067975;28;20350;-66
2022/05/12 14:46:22;;;;;;;5.18;1.30;;;;;;;;;;5070541;28;20291;-67
2022/05/12 14:48:50;;;;;;;3.58;1.52;;;;;;;;;;5069883;28;20579;-66
2022/05/12 14:51:17;;;;;;;2.63;1.35;;;;;;;;;;5070284;28;20177;-67
2022/05/12 14:53:43;;;;;;;3.20;1.33;;;;;;;;;;5068774;28;20181;-66
2022/05/12 14:56:08;;;;;;;2.45;1.35;;;;;;;;;;5070006;28;20188;-67
2022/05/12 14:58:33;;;;;;;3.40;1.40;;;;;;;;;;5068947;28;20187;-68
2022/05/12 15:01:00;;;;;;;4.07;1.40;;;;;;;;;;5067641;28;20268;-66
2022/05/12 15:03:26;;;;;;;4.35;1.65;;;;;;;;;;5069507;28;20205;-66
2022/05/12 15:05:51;;;;;;;4.60;1.45;;;;;;;;;;5069580;28;20177;-66
2022/05/12 15:08:17;;;;;;;4.53;1.65;;;;;;;;;;5063457;28;20272;-66
2022/05/12 15:10:42;;;;;;;3.03;1.48;;;;;;;;;;5063754;28;20256;-66
2022/05/12 15:13:07;;;;;;;2.95;1.35;;;;;;;;;;5067722;28;20231;-66
2022/05/12 15:15:32;;;;;;;6.80;1.48;;;;;;;;;;5068126;28;20720;-67
2022/05/12 15:17:58;;;;;;;3.17;1.40;;;;;;;;;;5064282;28;20181;-66
2022/05/12 15:20:24;;;;;;;3.90;1.20;;;;;;;;;;5067129;28;20231;-68
2022/05/12 15:22:50;;;;;;;2.72;1.42;;;;;;;;;;5066764;28;20619;-67
2022/05/12 15:25:17;;;;;;;3.42;1.45;;;;;;;;;;5065717;28;20200;-67
2022/05/12 15:27:45;;;;;;;4.18;1.15;;;;;;;;;;5068312;28;20250;-64